createdAt,value
2023-05-05T00:00:51.771Z,100111.25
2023-05-05T00:01:54.544Z,100111.25
2023-05-05T00:02:56.386Z,100110.66
2023-05-05T00:03:59.199Z,100103.22
2023-05-05T00:05:01.033Z,100108.75
2023-05-05T00:06:04.228Z,100111.50
2023-05-05T00:07:05.951Z,100103.44
2023-05-05T00:08:08.656Z,100110.88
2023-05-05T00:09:10.410Z,100110.31
2023-05-05T00:10:13.093Z,100105.59
2023-05-05T00:11:16.283Z,100108.34
2023-05-05T00:12:18.998Z,100108.63
2023-05-05T00:13:21.450Z,100102.25
2023-05-05T00:14:24.149Z,100107.78
2023-05-05T00:15:27.395Z,100105.59
2023-05-05T00:16:30.109Z,100102.00
2023-05-05T00:17:31.836Z,100104.50
2023-05-05T00:18:34.852Z,100102.59
2023-05-05T00:19:37.041Z,100102.34
2023-05-05T00:20:39.762Z,100105.72
2023-05-05T00:21:41.428Z,100101.88
2023-05-05T00:22:44.142Z,100101.88
2023-05-05T00:23:45.899Z,100105.47
2023-05-05T00:24:48.557Z,100103.56
2023-05-05T00:25:50.313Z,100105.25
2023-05-05T00:26:54.349Z,100104.41
2023-05-05T00:27:56.310Z,100101.63
2023-05-05T00:28:59.043Z,100109.94
2023-05-05T00:30:00.765Z,100105.25
2023-05-05T00:31:03.519Z,100111.63
2023-05-05T00:32:05.395Z,100106.94
2023-05-05T00:33:08.338Z,100108.88
2023-05-05T00:34:10.090Z,100113.28
2023-05-05T00:35:12.762Z,100108.00
2023-05-05T00:36:14.864Z,100108.88
2023-05-05T00:37:17.701Z,100104.19
2023-05-05T00:38:19.433Z,100105.84
2023-05-05T00:39:22.098Z,100108.59
2023-05-05T00:40:25.104Z,100109.72
2023-05-05T00:41:27.849Z,100102.47
2023-05-05T00:42:40.200Z,100108.00
2023-05-05T00:43:43.177Z,100104.41
2023-05-05T00:44:44.964Z,100107.16
2023-05-05T00:45:48.163Z,100100.78
2023-05-05T00:46:50.068Z,100114.63
2023-05-05T00:47:55.393Z,100108.25
2023-05-05T00:48:57.841Z,100109.59
2023-05-05T00:50:00.601Z,100105.97
2023-05-05T00:51:02.361Z,100096.22
2023-05-05T00:52:06.657Z,100095.00
2023-05-05T00:53:08.425Z,100099.56
2023-05-05T00:54:11.137Z,100101.16
2023-05-05T00:55:12.846Z,100097.41
2023-05-05T00:56:15.939Z,100090.09
2023-05-05T00:57:18.319Z,100096.31
2023-05-05T00:58:22.387Z,100102.31
2023-05-05T00:59:24.226Z,100097.28
2023-05-05T01:00:27.337Z,100102.19
2023-05-05T01:01:29.141Z,100099.66
2023-05-05T01:02:32.097Z,100095.19
2023-05-05T01:03:36.661Z,100096.28
2023-05-05T01:04:39.419Z,100090.13
2023-05-05T01:05:48.345Z,100097.56
2023-05-05T01:06:56.861Z,100097.84
2023-05-05T01:08:09.848Z,100088.69
2023-05-05T01:09:19.423Z,100088.94
2023-05-05T01:10:26.419Z,100098.28
2023-05-05T01:11:33.677Z,100086.41
2023-05-05T01:12:41.718Z,100094.94
2023-05-05T01:13:51.273Z,100092.19
2023-05-05T01:14:59.266Z,100092.41
2023-05-05T01:16:05.146Z,100093.47
2023-05-05T01:17:14.832Z,100100.91
2023-05-05T01:18:21.262Z,100090.34
2023-05-05T01:19:35.079Z,100091.44
2023-05-05T01:20:43.220Z,100087.22
2023-05-05T01:21:48.622Z,100084.91
2023-05-05T01:22:54.872Z,100084.09
2023-05-05T01:24:26.623Z,100084.91
2023-05-05T01:25:48.992Z,100074.97
2023-05-05T01:27:00.854Z,100077.72
2023-05-05T01:28:12.648Z,100078.56
2023-05-05T01:29:33.386Z,100075.81
2023-05-05T01:31:18.742Z,100077.13
2023-05-05T01:32:25.503Z,100074.56
2023-05-05T01:33:29.574Z,100073.16
2023-05-05T01:34:35.820Z,100069.75
2023-05-05T01:35:41.595Z,100067.25
2023-05-05T01:36:46.074Z,100073.00
2023-05-05T01:37:50.979Z,100057.50
2023-05-05T01:38:58.853Z,100056.66
2023-05-05T01:40:05.314Z,100053.31
2023-05-05T01:41:13.103Z,100057.16
2023-05-05T01:42:15.289Z,100051.00
2023-05-05T01:43:20.478Z,100060.13
2023-05-05T01:44:22.316Z,100056.78
2023-05-05T01:45:28.781Z,100062.31
2023-05-05T01:46:30.583Z,100054.25
2023-05-05T01:47:35.033Z,100048.72
2023-05-05T01:48:37.609Z,100041.50
2023-05-05T01:49:40.830Z,100039.00
2023-05-05T01:50:43.047Z,100037.31
2023-05-05T01:51:47.517Z,100041.13
2023-05-05T01:52:50.718Z,100035.84
2023-05-05T01:53:54.278Z,100045.47
2023-05-05T01:54:57.602Z,100049.28
2023-05-05T01:56:00.412Z,100058.06
2023-05-05T01:57:04.871Z,100064.66
2023-05-05T01:58:08.550Z,100078.31
2023-05-05T01:59:10.391Z,100067.34
2023-05-05T02:00:14.639Z,100059.41
2023-05-05T02:01:18.344Z,100063.09
2023-05-05T02:02:22.567Z,100054.44
2023-05-05T02:03:26.750Z,100064.63
2023-05-05T02:04:31.154Z,100067.59
2023-05-05T02:05:33.284Z,100075.03
2023-05-05T02:06:36.473Z,100076.13
2023-05-05T02:07:38.983Z,100079.97
2023-05-05T02:08:43.205Z,100092.91
2023-05-05T02:09:45.249Z,100088.25
2023-05-05T02:10:48.883Z,100088.72
2023-05-05T02:11:51.196Z,100087.25
2023-05-05T02:12:54.571Z,100086.63
2023-05-05T02:13:56.508Z,100086.88
2023-05-05T02:15:01.395Z,100094.09
2023-05-05T02:16:03.753Z,100096.84
2023-05-05T02:17:06.537Z,100097.66
2023-05-05T02:18:08.753Z,100092.97
2023-05-05T02:19:13.338Z,100097.44
2023-05-05T02:20:15.393Z,100102.09
2023-05-05T02:21:18.751Z,100096.00
2023-05-05T02:22:20.617Z,100107.03
2023-05-05T02:23:23.437Z,100101.75
2023-05-05T02:24:25.408Z,100105.81
2023-05-05T02:25:32.346Z,100095.00
2023-05-05T02:26:35.782Z,100098.81
2023-05-05T02:27:38.783Z,100101.81
2023-05-05T02:28:42.102Z,100088.25
2023-05-05T02:29:49.041Z,100093.78
2023-05-05T02:30:56.774Z,100092.94
2023-05-05T02:32:03.278Z,100093.16
2023-05-05T02:33:07.207Z,100090.41
2023-05-05T02:34:11.794Z,100087.63
2023-05-05T02:35:15.671Z,100093.16
2023-05-05T02:36:21.521Z,100098.91
2023-05-05T02:37:24.607Z,100101.66
2023-05-05T02:38:29.401Z,100107.44
2023-05-05T02:39:33.202Z,100111.25
2023-05-05T02:40:36.460Z,100106.41
2023-05-05T02:41:39.392Z,100110.47
2023-05-05T02:42:44.470Z,100113.22
2023-05-05T02:43:48.960Z,100116.22
2023-05-05T02:44:53.061Z,100119.22
2023-05-05T02:45:54.793Z,100116.44
2023-05-05T02:46:57.737Z,100118.38
2023-05-05T02:48:02.494Z,100117.31
2023-05-05T02:49:05.232Z,100115.38
2023-05-05T02:50:09.522Z,100125.34
2023-05-05T02:51:12.483Z,100118.16
2023-05-05T02:52:14.549Z,100116.44
2023-05-05T02:53:17.440Z,100121.38
2023-05-05T02:54:19.569Z,100119.06
2023-05-05T02:55:22.522Z,100121.66
2023-05-05T02:56:31.018Z,100125.72
2023-05-05T02:57:38.848Z,100113.69
2023-05-05T02:58:44.209Z,100122.44
2023-05-05T02:59:51.675Z,100115.66
2023-05-05T03:01:00.941Z,100115.06
2023-05-05T03:02:12.362Z,100111.66
2023-05-05T03:03:19.044Z,100104.47
2023-05-05T03:04:28.261Z,100103.66
2023-05-05T03:05:37.076Z,100106.41
2023-05-05T03:06:42.388Z,100116.59
2023-05-05T03:07:49.695Z,100118.72
2023-05-05T03:08:57.572Z,100126.59
2023-05-05T03:10:05.444Z,100119.00
2023-05-05T03:11:11.255Z,100121.34
2023-05-05T03:12:19.608Z,100127.97
2023-05-05T03:13:24.596Z,100124.56
2023-05-05T03:14:30.041Z,100124.78
2023-05-05T03:15:38.393Z,100121.66
2023-05-05T03:16:42.821Z,100127.38
2023-05-05T03:17:44.746Z,100128.47
2023-05-05T03:18:48.234Z,100122.09
2023-05-05T03:19:50.995Z,100123.56
2023-05-05T03:20:55.264Z,100119.75
2023-05-05T03:21:57.076Z,100118.69
2023-05-05T03:23:02.118Z,100120.13
2023-05-05T03:24:12.576Z,100124.56
2023-05-05T03:25:15.332Z,100124.34
2023-05-05T03:26:17.883Z,100120.75
2023-05-05T03:27:21.483Z,100119.91
2023-05-05T03:28:23.552Z,100131.78
2023-05-05T03:29:26.792Z,100126.47
2023-05-05T03:30:28.536Z,100120.38
2023-05-05T03:31:31.383Z,100117.81
2023-05-05T03:32:33.200Z,100118.88
2023-05-05T03:33:35.929Z,100123.56
2023-05-05T03:34:37.842Z,100122.09
2023-05-05T03:35:40.741Z,100121.22
2023-05-05T03:36:44.881Z,100123.13
2023-05-05T03:37:46.640Z,100132.25
2023-05-05T03:38:49.423Z,100122.28
2023-05-05T03:39:51.259Z,100119.53
2023-05-05T03:40:53.953Z,100120.59
2023-05-05T03:41:55.716Z,100130.78
2023-05-05T03:42:58.502Z,100133.78
2023-05-05T03:44:00.327Z,100133.78
2023-05-05T03:45:03.162Z,100132.09
2023-05-05T03:46:05.411Z,100129.31
2023-05-05T03:47:08.119Z,100134.84
2023-05-05T03:48:10.043Z,100140.34
2023-05-05T03:49:12.787Z,100133.16
2023-05-05T03:50:14.536Z,100121.53
2023-05-05T03:51:17.254Z,100132.53
2023-05-05T03:52:20.373Z,100125.56
2023-05-05T03:53:23.061Z,100131.06
2023-05-05T03:54:24.850Z,100130.22
2023-05-05T03:55:37.024Z,100131.28
2023-05-05T03:56:38.813Z,100132.13
2023-05-05T03:57:41.504Z,100128.53
2023-05-05T03:58:43.206Z,100136.78
2023-05-05T03:59:45.959Z,100137.63
2023-05-05T04:00:47.684Z,100134.88
2023-05-05T04:01:50.408Z,100134.88
2023-05-05T04:02:52.198Z,100132.38
2023-05-05T04:03:55.234Z,100134.03
2023-05-05T04:04:57.134Z,100131.28
2023-05-05T04:06:01.737Z,100130.22
2023-05-05T04:07:03.428Z,100124.69
2023-05-05T04:08:07.621Z,100120.88
2023-05-05T04:09:09.327Z,100129.16
2023-05-05T04:10:12.296Z,100126.41
2023-05-05T04:11:13.976Z,100126.19
2023-05-05T04:12:16.672Z,100124.28
2023-05-05T04:13:18.551Z,100123.19
2023-05-05T04:14:21.417Z,100126.78
2023-05-05T04:15:23.142Z,100135.91
2023-05-05T04:16:26.147Z,100133.16
2023-05-05T04:17:27.994Z,100132.09
2023-05-05T04:18:31.276Z,100132.09
2023-05-05T04:19:33.257Z,100134.63
2023-05-05T04:20:36.286Z,100140.97
2023-05-05T04:21:38.044Z,100142.66
2023-05-05T04:22:40.841Z,100137.13
2023-05-05T04:23:43.974Z,100140.53
2023-05-05T04:24:47.167Z,100143.09
2023-05-05T04:25:48.884Z,100143.69
2023-05-05T04:26:51.867Z,100140.72
2023-05-05T04:27:53.560Z,100133.91
2023-05-05T04:28:56.694Z,100134.31
2023-05-05T04:29:58.434Z,100132.16
2023-05-05T04:31:02.614Z,100135.56
2023-05-05T04:32:04.693Z,100133.41
2023-05-05T04:33:07.407Z,100134.63
2023-05-05T04:34:09.159Z,100128.88
2023-05-05T04:35:12.002Z,100133.13
2023-05-05T04:36:13.776Z,100135.41
2023-05-05T04:37:16.479Z,100137.13
2023-05-05T04:38:19.418Z,100126.31
2023-05-05T04:39:23.585Z,100126.31
2023-05-05T04:40:26.226Z,100136.47
2023-05-05T04:41:30.103Z,100141.41
2023-05-05T04:42:32.512Z,100134.63
2023-05-05T04:43:35.217Z,100145.06
2023-05-05T04:44:36.963Z,100144.41
2023-05-05T04:45:39.647Z,100142.97
2023-05-05T04:46:41.456Z,100144.03
2023-05-05T04:47:44.205Z,100144.88
2023-05-05T04:48:45.889Z,100145.72
2023-05-05T04:49:49.676Z,100157.59
2023-05-05T04:50:51.418Z,100159.31
2023-05-05T04:51:54.126Z,100155.22
2023-05-05T04:52:56.250Z,100153.72
2023-05-05T04:53:59.041Z,100159.41
2023-05-05T04:55:02.206Z,100164.84
2023-05-05T04:56:04.948Z,100159.50
2023-05-05T04:57:07.381Z,100162.44
2023-05-05T04:58:10.143Z,100158.75
2023-05-05T04:59:11.958Z,100161.22
2023-05-05T05:00:15.392Z,100160.06
2023-05-05T05:01:17.161Z,100155.34
2023-05-05T05:02:19.973Z,100160.75
2023-05-05T05:03:21.815Z,100160.69
2023-05-05T05:04:25.918Z,100155.94
2023-05-05T05:05:27.629Z,100158.66
2023-05-05T05:06:30.404Z,100158.59
2023-05-05T05:07:32.177Z,100152.97
2023-05-05T05:08:34.880Z,100160.09
2023-05-05T05:09:37.000Z,100165.28
2023-05-05T05:10:41.464Z,100164.38
2023-05-05T05:11:43.165Z,100167.03
2023-05-05T05:12:45.862Z,100168.03
2023-05-05T05:13:47.602Z,100160.72
2023-05-05T05:14:50.375Z,100167.22
2023-05-05T05:15:52.397Z,100164.84
2023-05-05T05:16:55.177Z,100171.34
2023-05-05T05:17:57.027Z,100173.63
2023-05-05T05:19:01.456Z,100172.91
2023-05-05T05:20:04.944Z,100174.38
2023-05-05T05:21:07.909Z,100165.63
2023-05-05T05:22:09.632Z,100176.84
2023-05-05T05:23:12.311Z,100176.97
2023-05-05T05:24:14.053Z,100175.19
2023-05-05T05:25:17.024Z,100179.16
2023-05-05T05:26:20.146Z,100174.84
2023-05-05T05:27:22.856Z,100179.06
2023-05-05T05:28:24.600Z,100183.28
2023-05-05T05:29:27.440Z,100183.88
2023-05-05T05:30:29.270Z,100185.31
2023-05-05T05:31:32.091Z,100185.09
2023-05-05T05:32:33.797Z,100179.34
2023-05-05T05:33:36.533Z,100172.69
2023-05-05T05:34:38.338Z,100178.00
2023-05-05T05:35:41.108Z,100170.53
2023-05-05T05:36:42.770Z,100173.94
2023-05-05T05:37:45.930Z,100176.69
2023-05-05T05:38:47.621Z,100172.81
2023-05-05T05:39:52.652Z,100180.91
2023-05-05T05:40:54.569Z,100178.97
2023-05-05T05:41:58.748Z,100182.59
2023-05-05T05:43:00.473Z,100176.56
2023-05-05T05:44:03.392Z,100179.94
2023-05-05T05:45:06.287Z,100186.06
2023-05-05T05:46:09.453Z,100188.38
2023-05-05T05:47:11.229Z,100184.28
2023-05-05T05:48:13.922Z,100189.34
2023-05-05T05:49:16.343Z,100190.16
2023-05-05T05:50:19.284Z,100193.53
2023-05-05T05:51:21.017Z,100197.50
2023-05-05T05:52:23.662Z,100191.53
2023-05-05T05:53:25.462Z,100196.56
2023-05-05T05:54:35.452Z,100189.69
2023-05-05T05:55:37.134Z,100193.06
2023-05-05T05:56:39.873Z,100196.47
2023-05-05T05:57:43.009Z,100201.72
2023-05-05T05:58:45.821Z,100204.25
2023-05-05T05:59:47.554Z,100195.25
2023-05-05T06:00:50.228Z,100200.28
2023-05-05T06:01:51.919Z,100200.44
2023-05-05T06:02:54.675Z,100202.00
2023-05-05T06:03:56.647Z,100214.88
2023-05-05T06:04:59.464Z,100211.75
2023-05-05T06:06:01.211Z,100207.75
2023-05-05T06:07:03.903Z,100212.31
2023-05-05T06:08:05.628Z,100216.91
2023-05-05T06:09:08.384Z,100216.50
2023-05-05T06:10:25.798Z,100216.13
2023-05-05T06:11:29.878Z,100214.06
2023-05-05T06:12:31.729Z,100216.34
2023-05-05T06:13:35.806Z,100207.78
2023-05-05T06:14:39.598Z,100207.91
2023-05-05T06:15:42.497Z,100219.13
2023-05-05T06:16:44.312Z,100212.84
2023-05-05T06:17:46.992Z,100216.56
2023-05-05T06:18:52.869Z,100223.53
2023-05-05T06:19:54.670Z,100220.25
2023-05-05T06:20:57.373Z,100224.47
2023-05-05T06:21:59.055Z,100217.09
2023-05-05T06:23:01.736Z,100220.53
2023-05-05T06:24:03.873Z,100225.09
2023-05-05T06:25:07.448Z,100216.03
2023-05-05T06:26:09.325Z,100216.13
2023-05-05T06:27:12.080Z,100225.38
2023-05-05T06:28:13.826Z,100228.25
2023-05-05T06:29:17.923Z,100222.81
2023-05-05T06:30:21.435Z,100224.31
2023-05-05T06:31:24.241Z,100229.47
2023-05-05T06:32:26.160Z,100229.09
2023-05-05T06:33:31.173Z,100228.91
2023-05-05T06:34:32.902Z,100225.72
2023-05-05T06:35:35.562Z,100220.25
2023-05-05T06:36:37.286Z,100224.19
2023-05-05T06:37:40.079Z,100217.88
2023-05-05T06:38:43.067Z,100224.59
2023-05-05T06:39:44.741Z,100221.31
2023-05-05T06:40:48.887Z,100225.53
2023-05-05T06:41:50.719Z,100219.72
2023-05-05T06:42:53.386Z,100216.66
2023-05-05T06:43:55.113Z,100220.91
2023-05-05T06:44:59.185Z,100219.53
2023-05-05T06:46:00.919Z,100224.59
2023-05-05T06:47:04.571Z,100229.31
2023-05-05T06:48:07.455Z,100232.94
2023-05-05T06:49:10.136Z,100233.00
2023-05-05T06:50:12.080Z,100224.91
2023-05-05T06:51:15.711Z,100227.69
2023-05-05T06:52:17.405Z,100226.94
2023-05-05T06:53:20.059Z,100224.72
2023-05-05T06:54:21.831Z,100221.91
2023-05-05T06:55:24.985Z,100222.97
2023-05-05T06:56:26.696Z,100220.22
2023-05-05T06:57:29.406Z,100225.75
2023-05-05T06:58:32.038Z,100221.63
2023-05-05T06:59:33.794Z,100223.31
2023-05-05T07:00:38.173Z,100220.28
2023-05-05T07:01:40.892Z,100222.78
2023-05-05T07:02:42.645Z,100221.19
2023-05-05T07:03:45.834Z,100209.56
2023-05-05T07:04:48.554Z,100217.75
2023-05-05T07:05:50.261Z,100221.75
2023-05-05T07:06:52.977Z,100222.66
2023-05-05T07:07:56.624Z,100215.56
2023-05-05T07:08:58.376Z,100222.28
2023-05-05T07:10:01.168Z,100220.59
2023-05-05T07:11:03.942Z,100224.78
2023-05-05T07:12:07.066Z,100226.47
2023-05-05T07:13:09.862Z,100221.75
2023-05-05T07:14:11.579Z,100217.88
2023-05-05T07:15:26.788Z,100220.97
2023-05-05T07:16:34.695Z,100229.97
2023-05-05T07:17:36.551Z,100226.66
2023-05-05T07:18:39.224Z,100214.44
2023-05-05T07:19:41.233Z,100220.06
2023-05-05T07:20:44.986Z,100230.41
2023-05-05T07:21:48.517Z,100224.25
2023-05-05T07:22:50.351Z,100224.00
2023-05-05T07:23:53.459Z,100221.84
2023-05-05T07:24:55.994Z,100224.13
2023-05-05T07:25:58.738Z,100221.84
2023-05-05T07:27:01.343Z,100222.00
2023-05-05T07:28:04.308Z,100223.16
2023-05-05T07:29:07.161Z,100220.44
2023-05-05T07:30:13.105Z,100232.16
2023-05-05T07:31:19.307Z,100217.75
2023-05-05T07:32:22.595Z,100229.00
2023-05-05T07:33:25.559Z,100227.69
2023-05-05T07:34:27.850Z,100233.56
2023-05-05T07:35:30.722Z,100232.97
2023-05-05T07:36:32.686Z,100234.44
2023-05-05T07:37:35.420Z,100229.47
2023-05-05T07:38:37.146Z,100230.63
2023-05-05T07:39:39.828Z,100237.09
2023-05-05T07:40:41.564Z,100231.56
2023-05-05T07:41:44.312Z,100234.94
2023-05-05T07:42:47.395Z,100229.31
2023-05-05T07:43:50.112Z,100234.09
2023-05-05T07:44:52.802Z,100227.16
2023-05-05T07:45:55.746Z,100224.97
2023-05-05T07:46:57.471Z,100226.94
2023-05-05T07:48:01.730Z,100235.06
2023-05-05T07:49:03.542Z,100232.56
2023-05-05T07:50:07.415Z,100227.03
2023-05-05T07:51:09.426Z,100237.13
2023-05-05T07:52:12.269Z,100230.75
2023-05-05T07:53:15.165Z,100230.19
2023-05-05T07:54:18.636Z,100235.78
2023-05-05T07:55:21.506Z,100234.16
2023-05-05T07:56:23.324Z,100228.56
2023-05-05T07:57:26.053Z,100233.63
2023-05-05T07:58:27.810Z,100239.22
2023-05-05T07:59:31.064Z,100237.84
2023-05-05T08:00:33.799Z,100237.03
2023-05-05T08:01:35.603Z,100230.66
2023-05-05T08:02:38.435Z,100239.88
2023-05-05T08:03:42.772Z,100236.59
2023-05-05T08:04:44.644Z,100233.56
2023-05-05T08:05:47.863Z,100233.28
2023-05-05T08:06:51.657Z,100243.31
2023-05-05T08:07:53.377Z,100234.94
2023-05-05T08:08:56.391Z,100229.66
2023-05-05T08:09:58.522Z,100235.50
2023-05-05T08:11:01.931Z,100231.88
2023-05-05T08:12:04.389Z,100235.75
2023-05-05T08:13:07.171Z,100237.72
2023-05-05T08:14:08.922Z,100231.59
2023-05-05T08:15:12.238Z,100246.66
2023-05-05T08:16:14.097Z,100237.09
2023-05-05T08:17:19.548Z,100243.78
2023-05-05T08:18:22.205Z,100242.38
2023-05-05T08:19:29.384Z,100236.81
2023-05-05T08:20:32.631Z,100241.81
2023-05-05T08:21:34.347Z,100233.44
2023-05-05T08:22:37.013Z,100235.97
2023-05-05T08:23:39.452Z,100235.97
2023-05-05T08:24:42.123Z,100242.38
2023-05-05T08:25:43.907Z,100239.59
2023-05-05T08:26:46.633Z,100242.09
2023-05-05T08:27:48.324Z,100240.16
2023-05-05T08:28:55.040Z,100239.59
2023-05-05T08:29:57.653Z,100242.06
2023-05-05T08:31:00.448Z,100243.84
2023-05-05T08:32:03.109Z,100232.16
2023-05-05T08:33:04.801Z,100242.81
2023-05-05T08:34:07.763Z,100246.44
2023-05-05T08:35:12.129Z,100242.25
2023-05-05T08:36:15.441Z,100242.00
2023-05-05T08:37:18.850Z,100243.66
2023-05-05T08:38:20.662Z,100234.78
2023-05-05T08:39:23.469Z,100239.28
2023-05-05T08:40:29.910Z,100241.50
2023-05-05T08:41:32.615Z,100238.72
2023-05-05T08:42:38.665Z,100239.00
2023-05-05T08:43:47.245Z,100237.03
2023-05-05T08:44:48.987Z,100237.03
2023-05-05T08:45:52.364Z,100226.72
2023-05-05T08:46:55.473Z,100235.94
2023-05-05T08:47:57.701Z,100235.09
2023-05-05T08:49:01.046Z,100236.50
2023-05-05T08:50:05.602Z,100233.97
2023-05-05T08:51:10.683Z,100240.09
2023-05-05T08:52:14.152Z,100228.41
2023-05-05T08:53:18.080Z,100236.47
2023-05-05T08:54:20.591Z,100237.91
2023-05-05T08:55:25.512Z,100227.59
2023-05-05T08:56:32.978Z,100233.72
2023-05-05T08:57:42.392Z,100228.72
2023-05-05T08:58:46.455Z,100237.34
2023-05-05T08:59:49.042Z,100229.00
2023-05-05T09:00:52.070Z,100228.75
2023-05-05T09:01:54.204Z,100227.69
2023-05-05T09:02:58.266Z,100224.34
2023-05-05T09:04:00.236Z,100233.28
2023-05-05T09:05:05.331Z,100223.53
2023-05-05T09:06:10.183Z,100227.19
2023-05-05T09:07:12.189Z,100224.69
2023-05-05T09:08:15.159Z,100236.13
2023-05-05T09:09:17.486Z,100224.69
2023-05-05T09:10:20.609Z,100225.78
2023-05-05T09:11:23.550Z,100219.09
2023-05-05T09:12:25.627Z,100223.56
2023-05-05T09:13:28.358Z,100225.81
2023-05-05T09:14:30.041Z,100228.63
2023-05-05T09:15:33.156Z,100238.09
2023-05-05T09:16:35.955Z,100231.94
2023-05-05T09:17:38.217Z,100223.78
2023-05-05T09:18:42.617Z,100231.63
2023-05-05T09:20:01.576Z,100227.41
2023-05-05T09:21:21.873Z,100219.00
2023-05-05T09:22:33.271Z,100225.16
2023-05-05T09:23:36.066Z,100229.09
2023-05-05T09:24:37.782Z,100224.28
2023-05-05T09:25:41.219Z,100224.25
2023-05-05T09:26:45.031Z,100218.66
2023-05-05T09:27:48.210Z,100223.94
2023-05-05T09:28:53.412Z,100222.53
2023-05-05T09:29:56.330Z,100219.69
2023-05-05T09:31:13.671Z,100213.25
2023-05-05T09:32:16.542Z,100220.78
2023-05-05T09:33:29.947Z,100221.94
2023-05-05T09:34:33.961Z,100228.06
2023-05-05T09:35:55.763Z,100221.63
2023-05-05T09:36:58.875Z,100216.59
2023-05-05T09:38:12.627Z,100216.06
2023-05-05T09:39:14.829Z,100218.31
2023-05-05T09:40:19.239Z,100215.50
2023-05-05T09:41:36.730Z,100219.13
2023-05-05T09:42:40.197Z,100209.84
2023-05-05T09:43:50.269Z,100211.19
2023-05-05T09:44:52.983Z,100218.75
2023-05-05T09:46:07.358Z,100212.84
2023-05-05T09:47:22.104Z,100222.06
2023-05-05T09:48:33.326Z,100223.72
2023-05-05T09:49:36.737Z,100208.91
2023-05-05T09:50:45.706Z,100211.66
2023-05-05T09:51:48.958Z,100210.88
2023-05-05T09:53:00.660Z,100201.03
2023-05-05T09:54:03.444Z,100213.69
2023-05-05T09:55:07.054Z,100212.84
2023-05-05T09:56:08.943Z,100201.34
2023-05-05T09:57:26.724Z,100196.03
2023-05-05T09:58:31.023Z,100202.16
2023-05-05T09:59:32.819Z,100204.63
2023-05-05T10:00:39.505Z,100204.59
2023-05-05T10:01:43.466Z,100193.91
2023-05-05T10:02:46.510Z,100196.34
2023-05-05T10:03:50.933Z,100196.78
2023-05-05T10:05:06.029Z,100200.31
2023-05-05T10:06:08.826Z,100204.16
2023-05-05T10:07:22.909Z,100199.25
2023-05-05T10:08:28.736Z,100200.00
2023-05-05T10:09:31.713Z,100201.13
2023-05-05T10:10:34.430Z,100194.00
2023-05-05T10:11:36.477Z,100191.44
2023-05-05T10:12:39.923Z,100191.63
2023-05-05T10:13:42.201Z,100200.28
2023-05-05T10:14:45.070Z,100198.53
2023-05-05T10:15:48.794Z,100197.63
2023-05-05T10:16:52.597Z,100195.16
2023-05-05T10:18:06.995Z,100201.84
2023-05-05T10:19:14.205Z,100195.16
2023-05-05T10:20:16.214Z,100192.28
2023-05-05T10:21:21.694Z,100188.56
2023-05-05T10:22:23.640Z,100192.50
2023-05-05T10:23:31.979Z,100182.13
2023-05-05T10:24:35.792Z,100187.75
2023-05-05T10:25:42.144Z,100187.75
2023-05-05T10:26:44.391Z,100186.41
2023-05-05T10:27:48.128Z,100185.50
2023-05-05T10:28:54.930Z,100180.16
2023-05-05T10:30:03.761Z,100185.94
2023-05-05T10:31:20.463Z,100195.47
2023-05-05T10:33:41.961Z,100183.91
2023-05-05T10:34:52.055Z,100183.50
2023-05-05T10:35:56.429Z,100186.03
2023-05-05T10:37:00.203Z,100181.88
2023-05-05T10:38:03.506Z,100172.59
2023-05-05T10:39:09.304Z,100175.56
2023-05-05T10:40:12.398Z,100180.31
2023-05-05T10:41:14.240Z,100186.53
2023-05-05T10:42:17.010Z,100185.41
2023-05-05T10:43:18.954Z,100176.66
2023-05-05T10:44:22.278Z,100178.25
2023-05-05T10:45:23.986Z,100168.38
2023-05-05T10:46:28.116Z,100173.94
2023-05-05T10:47:30.671Z,100170.97
2023-05-05T10:48:37.322Z,100174.47
2023-05-05T10:49:43.890Z,100178.88
2023-05-05T10:50:51.125Z,100182.97
2023-05-05T10:51:57.701Z,100174.59
2023-05-05T10:53:08.464Z,100178.34
2023-05-05T10:54:18.280Z,100182.34
2023-05-05T10:55:28.554Z,100169.63
2023-05-05T10:56:32.596Z,100178.78
2023-05-05T10:57:38.193Z,100175.00
2023-05-05T10:58:58.131Z,100171.97
2023-05-05T11:00:02.243Z,100168.47
2023-05-05T11:01:04.972Z,100168.47
2023-05-05T11:02:20.075Z,100174.63
2023-05-05T11:03:25.706Z,100167.56
2023-05-05T11:04:27.588Z,100168.41
2023-05-05T11:05:30.752Z,100161.94
2023-05-05T11:06:32.810Z,100164.09
2023-05-05T11:07:35.752Z,100162.09
2023-05-05T11:08:38.483Z,100164.91
2023-05-05T11:09:58.222Z,100166.38
2023-05-05T11:11:01.383Z,100159.16
2023-05-05T11:12:04.499Z,100161.78
2023-05-05T11:13:21.174Z,100157.91
2023-05-05T11:14:23.108Z,100167.47
2023-05-05T11:15:41.552Z,100157.09
2023-05-05T11:16:45.490Z,100152.81
2023-05-05T11:17:48.839Z,100150.13
2023-05-05T11:18:51.610Z,100148.88
2023-05-05T11:19:53.486Z,100141.25
2023-05-05T11:21:15.606Z,100146.72
2023-05-05T11:22:18.523Z,100141.88
2023-05-05T11:23:24.106Z,100139.44
2023-05-05T11:24:30.122Z,100137.13
2023-05-05T11:25:48.859Z,100133.19
2023-05-05T11:26:52.632Z,100140.28
2023-05-05T11:28:07.111Z,100154.13
2023-05-05T11:29:09.812Z,100135.28
2023-05-05T11:30:13.092Z,100141.34
2023-05-05T11:31:20.039Z,100136.47
2023-05-05T11:32:23.119Z,100125.78
2023-05-05T11:33:25.764Z,100119.78
2023-05-05T11:34:29.004Z,100117.63
2023-05-05T11:35:54.532Z,100132.25
2023-05-05T11:36:59.274Z,100127.09
2023-05-05T11:38:03.717Z,100123.44
2023-05-05T11:39:09.925Z,100124.97
2023-05-05T11:40:20.917Z,100117.66
2023-05-05T11:41:32.669Z,100123.63
2023-05-05T11:42:35.624Z,100116.88
2023-05-05T11:43:37.338Z,100120.38
2023-05-05T11:44:40.207Z,100112.41
2023-05-05T11:45:42.900Z,100113.88
2023-05-05T11:47:14.318Z,100116.19
2023-05-05T11:48:26.965Z,100115.22
2023-05-05T11:49:30.337Z,100102.72
2023-05-05T11:50:34.182Z,100109.91
2023-05-05T11:51:35.915Z,100111.59
2023-05-05T11:52:38.748Z,100107.19
2023-05-05T11:53:42.910Z,100114.28
2023-05-05T11:54:47.885Z,100101.06
2023-05-05T11:55:50.616Z,100107.06
2023-05-05T11:56:54.382Z,100100.22
2023-05-05T11:57:57.092Z,100100.03
2023-05-05T11:59:09.731Z,100098.75
2023-05-05T12:00:13.736Z,100101.34
2023-05-05T12:01:15.904Z,100102.84
2023-05-05T12:02:18.929Z,100103.44
2023-05-05T12:03:21.791Z,100101.78
2023-05-05T12:04:23.756Z,100102.59
2023-05-05T12:05:26.587Z,100099.38
2023-05-05T12:06:32.379Z,100093.28
2023-05-05T12:07:35.046Z,100088.25
2023-05-05T12:08:37.240Z,100088.63
2023-05-05T12:09:43.890Z,100092.16
2023-05-05T12:10:46.592Z,100086.53
2023-05-05T12:11:48.923Z,100084.34
2023-05-05T12:12:56.027Z,100085.16
2023-05-05T12:14:08.466Z,100078.88
2023-05-05T12:15:11.437Z,100081.59